»·PEaware :: AAL2490 KPHX-KSNA

AAL2490 :: KPHX-KSNA

FLIGHT INFORMATION

Flight Status: Arrived
Operator:
American Airlines
More flights by this operator :: More flights under this callsign
Pilot: Drew L. (13237)
Aircraft: AIRBUS A321
(A321)
More flights by this aircraft type
Origin: KPHX Phoenix Sky Harbor Intl
United States
Destination: KSNA John Wayne-Orange Co
United States
More flights between these airports :: More routes between these airports
Route: KEENS2 HRRBR EMLLD DSNEE4
File this flight plan on PilotEdge
Remarks: RMK / SIMBRIEF
Altitude:
(Current/Filed)
28,000ft
Speed:
(Current/Filed)
451kts
Departed: 13-Oct-20 07:31 PM
Arrived: 13-Oct-20 08:34 PM
Distance/Time
Traveled:
293nm/1:03
Distance/Time
To Go:
Arrived

Flight Plot

Page will automatically refresh every two minutes.

Flight plan parsing failed; only flown route is shown


Map Options




Map Legend


Flown Route
Filed Route
Departure Airport
Arrival Airport
Navaid (VOR, NDB)
Fix

Horizontal Profiles

Position Reports

Time Latitude Longitude Heading Altitude Ground
Speed
13-Oct-20 19:06 33.437153 -111.994910 96 1132ft 0kts
13-Oct-20 19:06 33.437153 -111.994910 96 1132ft 0kts
13-Oct-20 19:08 33.437153 -111.994910 96 1132ft 0kts
13-Oct-20 19:08 33.437153 -111.994910 96 1132ft 0kts
13-Oct-20 19:10 33.437153 -111.994910 96 1132ft 0kts
13-Oct-20 19:10 33.437153 -111.994910 96 1132ft 0kts
13-Oct-20 19:11 33.437153 -111.994910 96 1132ft 0kts
13-Oct-20 19:12 33.437153 -111.994910 96 1132ft 0kts
13-Oct-20 19:13 33.437171 -111.995108 96 1132ft 0kts
13-Oct-20 19:14 33.436913 -111.995578 10 1131ft 2kts
13-Oct-20 19:15 33.437899 -111.995569 0 1133ft 2kts
13-Oct-20 19:16 33.437936 -111.995569 0 1133ft 0kts
13-Oct-20 19:17 33.437936 -111.995569 0 1133ft 0kts
13-Oct-20 19:18 33.437936 -111.995569 0 1133ft 0kts
13-Oct-20 19:19 33.437940 -111.995569 0 1133ft 0kts
13-Oct-20 19:20 33.439691 -111.994041 89 1137ft 13kts
13-Oct-20 19:21 33.439779 -111.992353 41 1137ft 0kts
13-Oct-20 19:22 33.439779 -111.992353 41 1137ft 0kts
13-Oct-20 19:23 33.439779 -111.992353 41 1137ft 0kts
13-Oct-20 19:24 33.439779 -111.992353 41 1137ft 0kts
13-Oct-20 19:25 33.439779 -111.992353 41 1137ft 0kts
13-Oct-20 19:26 33.439779 -111.992353 41 1137ft 0kts
13-Oct-20 19:27 33.439779 -111.992353 41 1137ft 0kts
13-Oct-20 19:28 33.439779 -111.992353 41 1137ft 0kts
13-Oct-20 19:29 33.440027 -111.992288 357 1138ft 6kts
13-Oct-20 19:30 33.440841 -112.006748 270 1132ft 158kts
13-Oct-20 19:31 33.430208 -112.066969 248 3564ft 206kts
13-Oct-20 19:32 33.407136 -112.141505 251 4789ft 271kts
13-Oct-20 19:33 33.394839 -112.231820 281 7270ft 286kts
13-Oct-20 19:34 33.409697 -112.327472 281 9728ft 299kts
13-Oct-20 19:35 33.425261 -112.432025 280 11156ft 347kts
13-Oct-20 19:36 33.443417 -112.555592 280 12198ft 406kts
13-Oct-20 19:37 33.451421 -112.695675 271 14304ft 430kts
13-Oct-20 19:38 33.460026 -112.839946 281 16647ft 441kts
13-Oct-20 19:39 33.486931 -112.984283 283 18989ft 447kts
13-Oct-20 19:40 33.514344 -113.131397 282 20882ft 458kts
13-Oct-20 19:41 33.542088 -113.282118 282 22541ft 468kts
13-Oct-20 19:42 33.570199 -113.435599 282 23994ft 477kts
13-Oct-20 19:43 33.598964 -113.591974 283 25501ft 480kts
13-Oct-20 19:44 33.627064 -113.742879 282 27136ft 475kts
13-Oct-20 19:45 33.661698 -113.894650 291 27955ft 472kts
13-Oct-20 19:46 33.716093 -114.037780 295 27957ft 472kts
13-Oct-20 19:47 33.761680 -114.185323 281 27957ft 472kts
13-Oct-20 19:48 33.780690 -114.341652 278 27958ft 473kts
13-Oct-20 19:49 33.798622 -114.498276 278 27957ft 473kts
13-Oct-20 19:50 33.816553 -114.654535 278 27957ft 473kts
13-Oct-20 19:51 33.834268 -114.810999 278 27958ft 473kts
13-Oct-20 19:52 33.851778 -114.967610 277 27957ft 473kts
13-Oct-20 19:53 33.869116 -115.124695 278 27957ft 473kts
13-Oct-20 19:54 33.886303 -115.281341 278 27955ft 472kts
13-Oct-20 19:55 33.903313 -115.438037 278 27938ft 471kts
13-Oct-20 19:56 33.918522 -115.579634 278 27924ft 471kts
13-Oct-20 19:57 33.932076 -115.736502 275 27925ft 472kts
13-Oct-20 19:58 33.943134 -115.894284 275 27938ft 472kts
13-Oct-20 19:59 33.954151 -116.052107 275 27617ft 470kts
13-Oct-20 20:00 33.962002 -116.207869 268 26443ft 465kts
13-Oct-20 20:01 33.944710 -116.362975 262 23422ft 461kts
13-Oct-20 20:02 33.926338 -116.510646 262 21427ft 431kts
13-Oct-20 20:03 33.908709 -116.648835 262 19503ft 404kts
13-Oct-20 20:04 33.892219 -116.778134 263 17138ft 374kts
13-Oct-20 20:05 33.879432 -116.897257 263 14738ft 343kts
13-Oct-20 20:06 33.867337 -117.007665 262 12993ft 328kts
13-Oct-20 20:07 33.855344 -117.115482 261 11411ft 320kts
13-Oct-20 20:08 33.843548 -117.220759 261 10168ft 300kts
13-Oct-20 20:09 33.832948 -117.314952 261 9276ft 278kts
13-Oct-20 20:10 33.822560 -117.406497 262 8052ft 265kts
13-Oct-20 20:11 33.805728 -117.485886 249 8003ft 239kts
13-Oct-20 20:12 33.813670 -117.561249 291 6743ft 233kts
13-Oct-20 20:13 33.836651 -117.632248 291 6354ft 221kts
13-Oct-20 20:14 33.858862 -117.700913 291 5827ft 207kts
13-Oct-20 20:15 33.846968 -117.759154 226 4832ft 184kts
13-Oct-20 20:16 33.804268 -117.787426 208 3469ft 172kts
13-Oct-20 20:17 33.762825 -117.813622 209 1927ft 158kts
13-Oct-20 20:18 33.721941 -117.837987 195 1879ft 208kts
13-Oct-20 20:19 33.653751 -117.848648 189 2159ft 237kts
13-Oct-20 20:20 33.580190 -117.858994 186 2820ft 262kts
13-Oct-20 20:21 33.515171 -117.867065 188 3017ft 230kts
13-Oct-20 20:22 33.495856 -117.924450 312 3025ft 233kts
13-Oct-20 20:23 33.556134 -117.953387 341 3019ft 235kts
13-Oct-20 20:24 33.618828 -117.977557 341 3018ft 236kts
13-Oct-20 20:25 33.681040 -117.967823 26 3021ft 237kts
13-Oct-20 20:26 33.739953 -117.932272 26 3018ft 237kts
13-Oct-20 20:27 33.798988 -117.896439 26 3018ft 236kts
13-Oct-20 20:28 33.850689 -117.852035 81 3002ft 236kts
13-Oct-20 20:29 33.820001 -117.792167 144 2673ft 213kts
13-Oct-20 20:30 33.768355 -117.810099 208 1963ft 189kts
13-Oct-20 20:31 33.726723 -117.836548 208 1059ft 147kts
13-Oct-20 20:32 33.690458 -117.859413 208 330ft 147kts
13-Oct-20 20:33 33.669037 -117.871471 111 65ft 5kts

Navigation Log

Ident Type
Flight plan parsing failed, navigation log unavailable